sensor_id;sensor_type;location;lat;lon;timestamp;P1;P4;P2;P0;N10;N4;N25;N1;N05;TS
84586;SPS30;74809;48.198;16.302;2024-03-17T00:01:53;1.1;;1.1;1.0;;;;;;
84586;SPS30;74809;48.198;16.302;2024-03-17T00:06:53;1.1;;1.1;1.1;;;;;;
84586;SPS30;74809;48.198;16.302;2024-03-17T00:11:53;1.9;;1.9;1.8;;;;;;
84586;SPS30;74809;48.198;16.302;2024-03-17T00:16:53;1.8;;1.8;1.7;;;;;;
84586;SPS30;74809;48.198;16.302;2024-03-17T00:21:53;2.7;;2.7;2.6;;;;;;
84586;SPS30;74809;48.198;16.302;2024-03-17T00:26:53;3.0;;3.0;2.9;;;;;;
84586;SPS30;74809;48.198;16.302;2024-03-17T00:31:53;2.5;;2.5;2.4;;;;;;
84586;SPS30;74809;48.198;16.302;2024-03-17T00:36:53;2.6;;2.6;2.5;;;;;;
84586;SPS30;74809;48.198;16.302;2024-03-17T00:41:53;2.4;;2.4;2.3;;;;;;
84586;SPS30;74809;48.198;16.302;2024-03-17T00:46:53;2.0;;2.0;1.9;;;;;;
84586;SPS30;74809;48.198;16.302;2024-03-17T00:51:53;2.3;;2.3;2.2;;;;;;
84586;SPS30;74809;48.198;16.302;2024-03-17T00:56:53;2.2;;2.2;2.1;;;;;;
84586;SPS30;74809;48.198;16.302;2024-03-17T01:01:53;2.7;;2.7;2.6;;;;;;
84586;SPS30;74809;48.198;16.302;2024-03-17T01:06:53;2.8;;2.8;2.7;;;;;;
84586;SPS30;74809;48.198;16.302;2024-03-17T01:11:53;2.7;;2.7;2.6;;;;;;
84586;SPS30;74809;48.198;16.302;2024-03-17T01:16:54;2.9;;2.9;2.7;;;;;;
84586;SPS30;74809;48.198;16.302;2024-03-17T01:21:53;3.0;;3.0;2.9;;;;;;
84586;SPS30;74809;48.198;16.302;2024-03-17T01:26:53;2.9;;2.9;2.8;;;;;;
84586;SPS30;74809;48.198;16.302;2024-03-17T01:31:53;3.1;;3.1;2.9;;;;;;
84586;SPS30;74809;48.198;16.302;2024-03-17T01:36:53;3.4;;3.4;3.3;;;;;;
84586;SPS30;74809;48.198;16.302;2024-03-17T01:41:53;3.9;;3.9;3.7;;;;;;
84586;SPS30;74809;48.198;16.302;2024-03-17T01:46:53;4.4;;4.4;4.2;;;;;;
84586;SPS30;74809;48.198;16.302;2024-03-17T01:51:53;4.8;;4.8;4.6;;;;;;
84586;SPS30;74809;48.198;16.302;2024-03-17T01:56:53;5.0;;5.0;4.8;;;;;;
84586;SPS30;74809;48.198;16.302;2024-03-17T02:01:53;4.1;;4.1;3.9;;;;;;
84586;SPS30;74809;48.198;16.302;2024-03-17T02:06:53;4.9;;4.9;4.7;;;;;;
84586;SPS30;74809;48.198;16.302;2024-03-17T02:11:53;4.2;;4.2;4.0;;;;;;
84586;SPS30;74809;48.198;16.302;2024-03-17T02:16:53;4.9;;4.9;4.7;;;;;;
84586;SPS30;74809;48.198;16.302;2024-03-17T02:21:53;5.4;;5.4;5.2;;;;;;
84586;SPS30;74809;48.198;16.302;2024-03-17T02:26:53;6.1;;6.1;5.8;;;;;;
84586;SPS30;74809;48.198;16.302;2024-03-17T02:31:53;6.0;;6.0;5.8;;;;;;
84586;SPS30;74809;48.198;16.302;2024-03-17T02:36:53;6.0;;6.0;5.8;;;;;;
84586;SPS30;74809;48.198;16.302;2024-03-17T02:41:53;7.0;;7.0;6.6;;;;;;
84586;SPS30;74809;48.198;16.302;2024-03-17T02:46:53;6.5;;6.5;6.2;;;;;;
84586;SPS30;74809;48.198;16.302;2024-03-17T02:51:53;6.3;;6.3;6.1;;;;;;
84586;SPS30;74809;48.198;16.302;2024-03-17T02:56:53;6.5;;6.5;6.2;;;;;;
84586;SPS30;74809;48.198;16.302;2024-03-17T03:01:53;6.7;;6.7;6.4;;;;;;
84586;SPS30;74809;48.198;16.302;2024-03-17T03:06:53;7.6;;7.6;7.2;;;;;;
84586;SPS30;74809;48.198;16.302;2024-03-17T03:11:53;6.4;;6.4;6.1;;;;;;
84586;SPS30;74809;48.198;16.302;2024-03-17T03:16:53;7.2;;7.2;6.8;;;;;;
84586;SPS30;74809;48.198;16.302;2024-03-17T03:21:53;7.3;;7.3;7.0;;;;;;
84586;SPS30;74809;48.198;16.302;2024-03-17T03:26:53;6.8;;6.8;6.5;;;;;;
84586;SPS30;74809;48.198;16.302;2024-03-17T03:31:53;6.5;;6.5;6.2;;;;;;
84586;SPS30;74809;48.198;16.302;2024-03-17T03:36:53;6.8;;6.8;6.5;;;;;;
84586;SPS30;74809;48.198;16.302;2024-03-17T03:41:53;7.2;;7.2;6.8;;;;;;
84586;SPS30;74809;48.198;16.302;2024-03-17T03:46:53;7.3;;7.3;7.0;;;;;;
84586;SPS30;74809;48.198;16.302;2024-03-17T03:51:53;7.9;;7.9;7.5;;;;;;
84586;SPS30;74809;48.198;16.302;2024-03-17T03:56:53;6.9;;6.9;6.6;;;;;;
84586;SPS30;74809;48.198;16.302;2024-03-17T04:01:53;7.5;;7.5;7.2;;;;;;
84586;SPS30;74809;48.198;16.302;2024-03-17T04:06:53;8.2;;8.2;7.8;;;;;;
84586;SPS30;74809;48.198;16.302;2024-03-17T04:11:53;7.9;;7.9;7.5;;;;;;
84586;SPS30;74809;48.198;16.302;2024-03-17T04:16:53;8.1;;8.1;7.7;;;;;;
84586;SPS30;74809;48.198;16.302;2024-03-17T04:21:54;7.7;;7.7;7.3;;;;;;
84586;SPS30;74809;48.198;16.302;2024-03-17T04:26:53;7.7;;7.7;7.3;;;;;;
84586;SPS30;74809;48.198;16.302;2024-03-17T04:31:53;9.0;;9.0;8.6;;;;;;
84586;SPS30;74809;48.198;16.302;2024-03-17T04:36:53;8.2;;8.2;7.8;;;;;;
84586;SPS30;74809;48.198;16.302;2024-03-17T04:41:53;7.7;;7.7;7.3;;;;;;
84586;SPS30;74809;48.198;16.302;2024-03-17T04:46:54;7.8;;7.8;7.4;;;;;;
84586;SPS30;74809;48.198;16.302;2024-03-17T04:51:53;9.1;;9.1;8.7;;;;;;
84586;SPS30;74809;48.198;16.302;2024-03-17T04:56:53;9.4;;9.4;9.0;;;;;;
84586;SPS30;74809;48.198;16.302;2024-03-17T05:01:53;8.5;;8.5;8.1;;;;;;
84586;SPS30;74809;48.198;16.302;2024-03-17T05:06:53;7.7;;7.7;7.3;;;;;;
84586;SPS30;74809;48.198;16.302;2024-03-17T05:11:53;7.8;;7.8;7.4;;;;;;
84586;SPS30;74809;48.198;16.302;2024-03-17T05:16:53;7.5;;7.5;7.1;;;;;;
84586;SPS30;74809;48.198;16.302;2024-03-17T05:21:53;8.4;;8.4;8.0;;;;;;
84586;SPS30;74809;48.198;16.302;2024-03-17T05:26:53;7.4;;7.4;7.1;;;;;;
84586;SPS30;74809;48.198;16.302;2024-03-17T05:31:53;7.0;;7.0;6.7;;;;;;
84586;SPS30;74809;48.198;16.302;2024-03-17T05:36:53;6.7;;6.7;6.4;;;;;;
84586;SPS30;74809;48.198;16.302;2024-03-17T05:41:53;7.0;;7.0;6.7;;;;;;
84586;SPS30;74809;48.198;16.302;2024-03-17T05:46:53;6.3;;6.3;6.0;;;;;;
84586;SPS30;74809;48.198;16.302;2024-03-17T05:51:53;5.8;;5.8;5.5;;;;;;
84586;SPS30;74809;48.198;16.302;2024-03-17T05:56:53;5.8;;5.8;5.6;;;;;;
84586;SPS30;74809;48.198;16.302;2024-03-17T06:01:53;5.7;;5.7;5.5;;;;;;
84586;SPS30;74809;48.198;16.302;2024-03-17T06:06:53;5.4;;5.4;5.1;;;;;;
84586;SPS30;74809;48.198;16.302;2024-03-17T06:11:53;5.4;;5.4;5.1;;;;;;
84586;SPS30;74809;48.198;16.302;2024-03-17T06:16:53;5.1;;5.1;4.9;;;;;;
84586;SPS30;74809;48.198;16.302;2024-03-17T06:21:53;4.8;;4.8;4.5;;;;;;
84586;SPS30;74809;48.198;16.302;2024-03-17T06:26:53;5.2;;5.2;5.0;;;;;;
84586;SPS30;74809;48.198;16.302;2024-03-17T06:31:53;4.9;;4.9;4.7;;;;;;
84586;SPS30;74809;48.198;16.302;2024-03-17T06:36:53;4.7;;4.7;4.5;;;;;;
84586;SPS30;74809;48.198;16.302;2024-03-17T06:41:53;4.2;;4.2;4.0;;;;;;
84586;SPS30;74809;48.198;16.302;2024-03-17T06:46:53;4.8;;4.8;4.6;;;;;;
84586;SPS30;74809;48.198;16.302;2024-03-17T06:51:53;3.9;;3.9;3.7;;;;;;
84586;SPS30;74809;48.198;16.302;2024-03-17T06:56:53;4.1;;4.1;3.9;;;;;;
84586;SPS30;74809;48.198;16.302;2024-03-17T07:01:53;4.0;;4.0;3.8;;;;;;
84586;SPS30;74809;48.198;16.302;2024-03-17T07:06:53;4.2;;4.2;4.0;;;;;;
84586;SPS30;74809;48.198;16.302;2024-03-17T07:11:53;4.2;;4.2;4.0;;;;;;
84586;SPS30;74809;48.198;16.302;2024-03-17T07:16:53;4.3;;4.3;4.1;;;;;;
84586;SPS30;74809;48.198;16.302;2024-03-17T07:21:53;4.4;;4.4;4.2;;;;;;
84586;SPS30;74809;48.198;16.302;2024-03-17T07:26:53;4.3;;4.3;4.1;;;;;;
84586;SPS30;74809;48.198;16.302;2024-03-17T07:31:53;4.0;;4.0;3.9;;;;;;
84586;SPS30;74809;48.198;16.302;2024-03-17T07:36:53;3.4;;3.4;3.2;;;;;;
84586;SPS30;74809;48.198;16.302;2024-03-17T07:41:53;3.4;;3.4;3.2;;;;;;
84586;SPS30;74809;48.198;16.302;2024-03-17T07:46:55;3.9;;3.9;3.8;;;;;;
84586;SPS30;74809;48.198;16.302;2024-03-17T07:51:53;3.3;;3.3;3.2;;;;;;
84586;SPS30;74809;48.198;16.302;2024-03-17T07:56:53;3.7;;3.7;3.6;;;;;;
84586;SPS30;74809;48.198;16.302;2024-03-17T08:01:53;3.7;;3.7;3.5;;;;;;
84586;SPS30;74809;48.198;16.302;2024-03-17T08:06:53;4.7;;4.7;4.5;;;;;;
84586;SPS30;74809;48.198;16.302;2024-03-17T08:11:53;4.3;;4.3;4.1;;;;;;
84586;SPS30;74809;48.198;16.302;2024-03-17T08:16:53;3.8;;3.8;3.6;;;;;;
84586;SPS30;74809;48.198;16.302;2024-03-17T08:21:53;3.6;;3.6;3.4;;;;;;
84586;SPS30;74809;48.198;16.302;2024-03-17T08:26:53;3.2;;3.2;3.0;;;;;;
84586;SPS30;74809;48.198;16.302;2024-03-17T08:31:53;3.8;;3.8;3.7;;;;;;
84586;SPS30;74809;48.198;16.302;2024-03-17T08:36:53;3.7;;3.7;3.5;;;;;;
84586;SPS30;74809;48.198;16.302;2024-03-17T08:41:53;4.1;;4.1;3.9;;;;;;
84586;SPS30;74809;48.198;16.302;2024-03-17T08:46:53;4.2;;4.2;4.0;;;;;;
84586;SPS30;74809;48.198;16.302;2024-03-17T08:51:53;4.0;;4.0;3.9;;;;;;
84586;SPS30;74809;48.198;16.302;2024-03-17T08:56:53;4.3;;4.3;4.1;;;;;;
84586;SPS30;74809;48.198;16.302;2024-03-17T09:01:53;4.4;;4.6;4.0;;;;;;
84586;SPS30;74809;48.198;16.302;2024-03-17T09:06:53;4.3;;4.3;4.1;;;;;;
84586;SPS30;74809;48.198;16.302;2024-03-17T09:11:53;4.5;;4.5;4.3;;;;;;
84586;SPS30;74809;48.198;16.302;2024-03-17T09:16:56;5.0;;5.0;4.8;;;;;;
84586;SPS30;74809;48.198;16.302;2024-03-17T09:21:53;4.6;;4.6;4.3;;;;;;
84586;SPS30;74809;48.198;16.302;2024-03-17T09:26:53;4.4;;4.4;4.2;;;;;;
84586;SPS30;74809;48.198;16.302;2024-03-17T09:31:53;4.1;;4.1;3.9;;;;;;
84586;SPS30;74809;48.198;16.302;2024-03-17T09:36:53;4.1;;4.1;3.9;;;;;;
84586;SPS30;74809;48.198;16.302;2024-03-17T09:41:53;4.6;;4.6;4.4;;;;;;
84586;SPS30;74809;48.198;16.302;2024-03-17T09:46:53;3.6;;3.6;3.4;;;;;;
84586;SPS30;74809;48.198;16.302;2024-03-17T09:51:53;3.4;;3.4;3.3;;;;;;
84586;SPS30;74809;48.198;16.302;2024-03-17T09:56:53;3.2;;3.2;3.1;;;;;;
84586;SPS30;74809;48.198;16.302;2024-03-17T10:01:53;3.0;;3.0;2.8;;;;;;
84586;SPS30;74809;48.198;16.302;2024-03-17T10:06:53;3.7;;3.7;3.5;;;;;;
84586;SPS30;74809;48.198;16.302;2024-03-17T10:11:53;16.4;;16.4;15.7;;;;;;
84586;SPS30;74809;48.198;16.302;2024-03-17T10:16:53;3.5;;3.5;3.3;;;;;;
84586;SPS30;74809;48.198;16.302;2024-03-17T10:21:59;3.3;;3.3;3.1;;;;;;
84586;SPS30;74809;48.198;16.302;2024-03-17T10:26:54;3.4;;3.4;3.2;;;;;;
84586;SPS30;74809;48.198;16.302;2024-03-17T10:31:54;3.3;;3.3;3.1;;;;;;
84586;SPS30;74809;48.198;16.302;2024-03-17T10:36:53;3.3;;3.3;3.1;;;;;;
84586;SPS30;74809;48.198;16.302;2024-03-17T10:41:53;3.2;;3.2;3.0;;;;;;
84586;SPS30;74809;48.198;16.302;2024-03-17T10:46:53;3.4;;3.4;3.3;;;;;;
84586;SPS30;74809;48.198;16.302;2024-03-17T10:51:53;3.6;;3.6;3.5;;;;;;
84586;SPS30;74809;48.198;16.302;2024-03-17T10:56:54;3.5;;3.5;3.3;;;;;;
84586;SPS30;74809;48.198;16.302;2024-03-17T11:01:53;3.8;;3.8;3.6;;;;;;
84586;SPS30;74809;48.198;16.302;2024-03-17T11:06:53;3.6;;3.6;3.4;;;;;;
84586;SPS30;74809;48.198;16.302;2024-03-17T11:11:53;3.0;;3.0;2.9;;;;;;
84586;SPS30;74809;48.198;16.302;2024-03-17T11:16:53;3.8;;3.8;3.6;;;;;;
84586;SPS30;74809;48.198;16.302;2024-03-17T11:21:53;2.4;;2.4;2.3;;;;;;
84586;SPS30;74809;48.198;16.302;2024-03-17T11:26:53;3.1;;3.1;2.9;;;;;;
84586;SPS30;74809;48.198;16.302;2024-03-17T11:31:53;3.3;;3.3;3.2;;;;;;
84586;SPS30;74809;48.198;16.302;2024-03-17T11:36:53;3.2;;3.2;3.0;;;;;;
84586;SPS30;74809;48.198;16.302;2024-03-17T11:41:53;3.2;;3.2;3.1;;;;;;
84586;SPS30;74809;48.198;16.302;2024-03-17T11:46:54;3.1;;3.1;2.9;;;;;;
84586;SPS30;74809;48.198;16.302;2024-03-17T11:51:54;2.9;;2.9;2.8;;;;;;
84586;SPS30;74809;48.198;16.302;2024-03-17T11:56:54;3.8;;3.8;3.6;;;;;;
84586;SPS30;74809;48.198;16.302;2024-03-17T12:01:53;3.2;;3.2;3.1;;;;;;
84586;SPS30;74809;48.198;16.302;2024-03-17T12:06:54;3.2;;3.2;3.0;;;;;;
84586;SPS30;74809;48.198;16.302;2024-03-17T12:11:59;3.1;;3.1;2.9;;;;;;
84586;SPS30;74809;48.198;16.302;2024-03-17T12:16:54;3.2;;3.2;3.0;;;;;;
84586;SPS30;74809;48.198;16.302;2024-03-17T12:21:53;2.6;;2.6;2.5;;;;;;
84586;SPS30;74809;48.198;16.302;2024-03-17T12:26:54;3.0;;3.0;2.9;;;;;;
84586;SPS30;74809;48.198;16.302;2024-03-17T12:31:54;3.0;;3.0;2.9;;;;;;
84586;SPS30;74809;48.198;16.302;2024-03-17T12:36:54;2.5;;2.5;2.4;;;;;;
84586;SPS30;74809;48.198;16.302;2024-03-17T12:46:55;3.2;;3.2;3.0;;;;;;
84586;SPS30;74809;48.198;16.302;2024-03-17T12:51:53;3.4;;3.4;3.2;;;;;;
84586;SPS30;74809;48.198;16.302;2024-03-17T12:57:04;3.8;;3.8;3.6;;;;;;
84586;SPS30;74809;48.198;16.302;2024-03-17T13:01:53;3.3;;3.3;3.1;;;;;;
84586;SPS30;74809;48.198;16.302;2024-03-17T13:06:53;3.0;;3.0;2.9;;;;;;
84586;SPS30;74809;48.198;16.302;2024-03-17T13:11:53;3.0;;3.0;2.9;;;;;;
84586;SPS30;74809;48.198;16.302;2024-03-17T13:16:53;2.9;;2.9;2.8;;;;;;
84586;SPS30;74809;48.198;16.302;2024-03-17T13:21:53;3.2;;3.2;3.1;;;;;;
84586;SPS30;74809;48.198;16.302;2024-03-17T13:26:53;2.8;;2.8;2.7;;;;;;
84586;SPS30;74809;48.198;16.302;2024-03-17T13:31:53;3.8;;3.8;3.7;;;;;;
84586;SPS30;74809;48.198;16.302;2024-03-17T13:36:53;3.0;;3.0;2.8;;;;;;
84586;SPS30;74809;48.198;16.302;2024-03-17T13:41:53;2.8;;2.8;2.7;;;;;;
84586;SPS30;74809;48.198;16.302;2024-03-17T13:46:53;2.7;;2.7;2.6;;;;;;
84586;SPS30;74809;48.198;16.302;2024-03-17T13:51:53;2.6;;2.6;2.5;;;;;;
84586;SPS30;74809;48.198;16.302;2024-03-17T13:56:53;2.8;;2.8;2.7;;;;;;
84586;SPS30;74809;48.198;16.302;2024-03-17T14:01:53;2.8;;2.8;2.7;;;;;;
84586;SPS30;74809;48.198;16.302;2024-03-17T14:06:53;3.1;;3.1;3.0;;;;;;
84586;SPS30;74809;48.198;16.302;2024-03-17T14:11:53;2.9;;2.9;2.8;;;;;;
84586;SPS30;74809;48.198;16.302;2024-03-17T14:16:53;3.0;;3.0;2.9;;;;;;
84586;SPS30;74809;48.198;16.302;2024-03-17T14:21:53;2.7;;2.7;2.6;;;;;;
84586;SPS30;74809;48.198;16.302;2024-03-17T14:26:53;2.6;;2.6;2.5;;;;;;
84586;SPS30;74809;48.198;16.302;2024-03-17T14:31:53;2.6;;2.6;2.5;;;;;;
84586;SPS30;74809;48.198;16.302;2024-03-17T14:36:53;2.7;;2.7;2.6;;;;;;
84586;SPS30;74809;48.198;16.302;2024-03-17T14:41:53;2.8;;2.8;2.7;;;;;;
84586;SPS30;74809;48.198;16.302;2024-03-17T14:46:53;2.2;;2.2;2.1;;;;;;
84586;SPS30;74809;48.198;16.302;2024-03-17T14:51:53;2.6;;2.6;2.5;;;;;;
84586;SPS30;74809;48.198;16.302;2024-03-17T14:56:53;2.7;;2.7;2.5;;;;;;
84586;SPS30;74809;48.198;16.302;2024-03-17T15:01:53;2.6;;2.6;2.5;;;;;;
84586;SPS30;74809;48.198;16.302;2024-03-17T15:06:53;3.0;;3.0;2.9;;;;;;
84586;SPS30;74809;48.198;16.302;2024-03-17T15:11:53;3.0;;3.0;2.9;;;;;;
84586;SPS30;74809;48.198;16.302;2024-03-17T15:16:53;2.2;;2.2;2.1;;;;;;
84586;SPS30;74809;48.198;16.302;2024-03-17T15:21:53;2.6;;2.6;2.5;;;;;;
84586;SPS30;74809;48.198;16.302;2024-03-17T15:26:53;2.3;;2.3;2.2;;;;;;
84586;SPS30;74809;48.198;16.302;2024-03-17T15:31:53;2.0;;2.0;1.9;;;;;;
84586;SPS30;74809;48.198;16.302;2024-03-17T15:36:53;2.4;;2.4;2.3;;;;;;
84586;SPS30;74809;48.198;16.302;2024-03-17T15:41:53;2.6;;2.6;2.5;;;;;;
84586;SPS30;74809;48.198;16.302;2024-03-17T15:46:53;2.1;;2.1;2.0;;;;;;
84586;SPS30;74809;48.198;16.302;2024-03-17T15:51:53;2.4;;2.4;2.3;;;;;;
84586;SPS30;74809;48.198;16.302;2024-03-17T15:56:53;2.5;;2.5;2.4;;;;;;
84586;SPS30;74809;48.198;16.302;2024-03-17T16:01:53;2.6;;2.6;2.5;;;;;;
84586;SPS30;74809;48.198;16.302;2024-03-17T16:06:53;3.1;;3.1;3.0;;;;;;
84586;SPS30;74809;48.198;16.302;2024-03-17T16:11:53;2.7;;2.7;2.6;;;;;;
84586;SPS30;74809;48.198;16.302;2024-03-17T16:16:53;3.3;;3.3;3.2;;;;;;
84586;SPS30;74809;48.198;16.302;2024-03-17T16:21:53;2.4;;2.4;2.3;;;;;;
84586;SPS30;74809;48.198;16.302;2024-03-17T16:26:53;3.0;;3.0;2.8;;;;;;
84586;SPS30;74809;48.198;16.302;2024-03-17T16:31:53;2.7;;2.7;2.5;;;;;;
84586;SPS30;74809;48.198;16.302;2024-03-17T16:36:53;2.4;;2.4;2.3;;;;;;
84586;SPS30;74809;48.198;16.302;2024-03-17T16:41:53;3.0;;3.0;2.9;;;;;;
84586;SPS30;74809;48.198;16.302;2024-03-17T16:47:35;2.7;;2.7;2.6;;;;;;
84586;SPS30;74809;48.198;16.302;2024-03-17T16:51:53;3.3;;3.3;3.2;;;;;;
84586;SPS30;74809;48.198;16.302;2024-03-17T16:56:53;3.0;;3.0;2.9;;;;;;
84586;SPS30;74809;48.198;16.302;2024-03-17T17:01:53;2.8;;2.8;2.6;;;;;;
84586;SPS30;74809;48.198;16.302;2024-03-17T17:06:53;2.2;;2.2;2.1;;;;;;
84586;SPS30;74809;48.198;16.302;2024-03-17T17:11:53;3.9;;3.9;3.7;;;;;;
84586;SPS30;74809;48.198;16.302;2024-03-17T17:16:53;3.0;;3.0;2.8;;;;;;
84586;SPS30;74809;48.198;16.302;2024-03-17T17:21:53;2.7;;2.7;2.6;;;;;;
84586;SPS30;74809;48.198;16.302;2024-03-17T17:26:53;7.8;;7.8;7.5;;;;;;
84586;SPS30;74809;48.198;16.302;2024-03-17T17:31:53;19.3;;20.3;17.6;;;;;;
84586;SPS30;74809;48.198;16.302;2024-03-17T17:36:53;6.0;;6.1;5.6;;;;;;
84586;SPS30;74809;48.198;16.302;2024-03-17T17:41:53;4.5;;4.6;4.3;;;;;;
84586;SPS30;74809;48.198;16.302;2024-03-17T17:46:53;4.7;;4.8;4.4;;;;;;
84586;SPS30;74809;48.198;16.302;2024-03-17T17:51:53;3.5;;3.5;3.3;;;;;;
84586;SPS30;74809;48.198;16.302;2024-03-17T17:56:53;3.4;;3.4;3.2;;;;;;
84586;SPS30;74809;48.198;16.302;2024-03-17T18:01:53;3.3;;3.4;3.2;;;;;;
84586;SPS30;74809;48.198;16.302;2024-03-17T18:06:53;3.7;;3.7;3.5;;;;;;
84586;SPS30;74809;48.198;16.302;2024-03-17T18:11:53;3.7;;3.7;3.5;;;;;;
84586;SPS30;74809;48.198;16.302;2024-03-17T18:16:53;4.1;;4.1;4.0;;;;;;
84586;SPS30;74809;48.198;16.302;2024-03-17T18:21:53;3.7;;3.7;3.5;;;;;;
84586;SPS30;74809;48.198;16.302;2024-03-17T18:26:53;3.6;;3.6;3.4;;;;;;
84586;SPS30;74809;48.198;16.302;2024-03-17T18:31:54;4.6;;4.6;4.3;;;;;;
84586;SPS30;74809;48.198;16.302;2024-03-17T18:36:54;4.2;;4.2;3.9;;;;;;
84586;SPS30;74809;48.198;16.302;2024-03-17T18:41:53;5.3;;5.4;5.0;;;;;;
84586;SPS30;74809;48.198;16.302;2024-03-17T18:46:53;5.0;;5.1;4.7;;;;;;
84586;SPS30;74809;48.198;16.302;2024-03-17T18:51:53;4.7;;4.8;4.4;;;;;;
84586;SPS30;74809;48.198;16.302;2024-03-17T18:56:53;5.0;;5.0;4.7;;;;;;
84586;SPS30;74809;48.198;16.302;2024-03-17T19:01:53;11.5;;12.1;10.5;;;;;;
84586;SPS30;74809;48.198;16.302;2024-03-17T19:06:53;13.3;;14.5;11.7;;;;;;
84586;SPS30;74809;48.198;16.302;2024-03-17T19:11:53;9.0;;9.3;8.4;;;;;;
84586;SPS30;74809;48.198;16.302;2024-03-17T19:16:53;5.8;;5.9;5.4;;;;;;
84586;SPS30;74809;48.198;16.302;2024-03-17T19:21:53;5.4;;5.4;5.2;;;;;;
84586;SPS30;74809;48.198;16.302;2024-03-17T19:26:53;7.7;;7.7;7.3;;;;;;
84586;SPS30;74809;48.198;16.302;2024-03-17T19:31:54;6.1;;6.1;5.9;;;;;;
84586;SPS30;74809;48.198;16.302;2024-03-17T19:36:53;5.2;;5.2;5.0;;;;;;
84586;SPS30;74809;48.198;16.302;2024-03-17T19:41:53;5.6;;5.6;5.3;;;;;;
84586;SPS30;74809;48.198;16.302;2024-03-17T19:46:53;6.8;;6.9;6.5;;;;;;
84586;SPS30;74809;48.198;16.302;2024-03-17T19:51:53;6.7;;6.7;6.3;;;;;;
84586;SPS30;74809;48.198;16.302;2024-03-17T19:56:53;7.5;;7.5;7.2;;;;;;
84586;SPS30;74809;48.198;16.302;2024-03-17T20:01:54;7.5;;7.6;7.0;;;;;;
84586;SPS30;74809;48.198;16.302;2024-03-17T20:06:53;8.5;;8.6;7.9;;;;;;
84586;SPS30;74809;48.198;16.302;2024-03-17T20:11:53;6.9;;6.9;6.6;;;;;;
84586;SPS30;74809;48.198;16.302;2024-03-17T20:16:53;8.1;;8.3;7.6;;;;;;
84586;SPS30;74809;48.198;16.302;2024-03-17T20:21:53;10.1;;10.3;9.4;;;;;;
84586;SPS30;74809;48.198;16.302;2024-03-17T20:26:53;12.7;;12.7;12.1;;;;;;
84586;SPS30;74809;48.198;16.302;2024-03-17T20:31:55;13.1;;13.1;12.5;;;;;;
84586;SPS30;74809;48.198;16.302;2024-03-17T20:36:53;7.3;;7.5;6.8;;;;;;
84586;SPS30;74809;48.198;16.302;2024-03-17T20:41:53;7.7;;7.7;7.3;;;;;;
84586;SPS30;74809;48.198;16.302;2024-03-17T20:46:53;7.8;;7.8;7.4;;;;;;
84586;SPS30;74809;48.198;16.302;2024-03-17T20:51:53;6.0;;6.0;5.7;;;;;;
84586;SPS30;74809;48.198;16.302;2024-03-17T20:56:53;5.7;;5.9;5.4;;;;;;
84586;SPS30;74809;48.198;16.302;2024-03-17T21:01:53;7.4;;7.5;6.9;;;;;;
84586;SPS30;74809;48.198;16.302;2024-03-17T21:06:53;10.4;;10.6;9.7;;;;;;
84586;SPS30;74809;48.198;16.302;2024-03-17T21:11:53;7.7;;7.8;7.3;;;;;;
84586;SPS30;74809;48.198;16.302;2024-03-17T21:16:53;6.5;;6.6;6.2;;;;;;
84586;SPS30;74809;48.198;16.302;2024-03-17T21:21:54;7.3;;7.4;7.0;;;;;;
84586;SPS30;74809;48.198;16.302;2024-03-17T21:26:53;6.5;;6.6;6.0;;;;;;
84586;SPS30;74809;48.198;16.302;2024-03-17T21:31:53;13.5;;14.1;12.4;;;;;;
84586;SPS30;74809;48.198;16.302;2024-03-17T21:36:53;9.8;;10.1;9.1;;;;;;
84586;SPS30;74809;48.198;16.302;2024-03-17T21:41:53;8.1;;8.1;7.7;;;;;;
84586;SPS30;74809;48.198;16.302;2024-03-17T21:46:53;7.4;;7.5;6.9;;;;;;
84586;SPS30;74809;48.198;16.302;2024-03-17T21:51:53;8.6;;8.8;8.0;;;;;;
84586;SPS30;74809;48.198;16.302;2024-03-17T21:56:54;7.3;;7.3;7.0;;;;;;
84586;SPS30;74809;48.198;16.302;2024-03-17T22:01:53;6.4;;6.4;6.1;;;;;;
84586;SPS30;74809;48.198;16.302;2024-03-17T22:06:53;6.3;;6.3;6.0;;;;;;
84586;SPS30;74809;48.198;16.302;2024-03-17T22:11:53;6.0;;6.1;5.7;;;;;;
84586;SPS30;74809;48.198;16.302;2024-03-17T22:16:53;6.2;;6.2;5.9;;;;;;
84586;SPS30;74809;48.198;16.302;2024-03-17T22:21:53;6.0;;6.1;5.6;;;;;;
84586;SPS30;74809;48.198;16.302;2024-03-17T22:26:53;5.2;;5.2;5.0;;;;;;
84586;SPS30;74809;48.198;16.302;2024-03-17T22:31:53;5.2;;5.2;5.0;;;;;;
84586;SPS30;74809;48.198;16.302;2024-03-17T22:36:53;6.7;;6.7;6.4;;;;;;
84586;SPS30;74809;48.198;16.302;2024-03-17T22:41:53;6.1;;6.1;5.8;;;;;;
84586;SPS30;74809;48.198;16.302;2024-03-17T22:46:54;6.0;;6.0;5.8;;;;;;
84586;SPS30;74809;48.198;16.302;2024-03-17T22:51:53;5.8;;5.8;5.5;;;;;;
84586;SPS30;74809;48.198;16.302;2024-03-17T22:56:53;6.2;;6.2;5.9;;;;;;
84586;SPS30;74809;48.198;16.302;2024-03-17T23:01:53;5.2;;5.2;4.9;;;;;;
84586;SPS30;74809;48.198;16.302;2024-03-17T23:06:53;5.8;;5.8;5.6;;;;;;
84586;SPS30;74809;48.198;16.302;2024-03-17T23:11:53;5.3;;5.3;5.1;;;;;;
84586;SPS30;74809;48.198;16.302;2024-03-17T23:16:53;5.6;;5.8;5.2;;;;;;
84586;SPS30;74809;48.198;16.302;2024-03-17T23:21:54;6.1;;6.1;5.8;;;;;;
84586;SPS30;74809;48.198;16.302;2024-03-17T23:26:53;5.4;;5.4;5.2;;;;;;
84586;SPS30;74809;48.198;16.302;2024-03-17T23:31:53;4.8;;4.8;4.5;;;;;;
84586;SPS30;74809;48.198;16.302;2024-03-17T23:36:53;5.2;;5.2;4.9;;;;;;
84586;SPS30;74809;48.198;16.302;2024-03-17T23:41:53;5.6;;5.6;5.3;;;;;;
84586;SPS30;74809;48.198;16.302;2024-03-17T23:46:53;5.4;;5.4;5.2;;;;;;
84586;SPS30;74809;48.198;16.302;2024-03-17T23:51:53;5.6;;5.6;5.4;;;;;;
84586;SPS30;74809;48.198;16.302;2024-03-17T23:56:53;4.7;;4.7;4.5;;;;;;
